Time;durP1;ratioP1;P1;durP2;ratioP2;P2;SDS_P1;SDS_P2;PMS_P1;PMS_P2;Temp;Humidity;BMP_temperature;BMP_pressure;BME280_temperature;BME280_humidity;BME280_pressure;Samples;Min_cycle;Max_cycle;Signal;HPM_P1;HPM_P2
2024/01/03 00:01:05;;;;;;;17.38;2.22;;;;;;;;;;5022924;28;20668;-62
2024/01/03 00:03:32;;;;;;;18.52;2.35;;;;;;;;;;5023667;28;20033;-62
2024/01/03 00:06:00;;;;;;;14.10;2.08;;;;;;;;;;5023155;28;20060;-62
2024/01/03 00:08:27;;;;;;;14.27;2.22;;;;;;;;;;5024973;28;20056;-62
2024/01/03 00:10:57;;;;;;;11.05;1.83;;;;;;;;;;5022548;28;20044;-63
2024/01/03 00:13:39;;;;;;;12.48;2.30;;;;;;;;;;5023600;28;20039;-63
2024/01/03 00:16:06;;;;;;;11.60;1.70;;;;;;;;;;5025445;28;20029;-62
2024/01/03 00:18:36;;;;;;;12.30;1.50;;;;;;;;;;5024618;28;20027;-62
2024/01/03 00:21:03;;;;;;;12.15;2.15;;;;;;;;;;5024796;28;20128;-62
2024/01/03 00:23:38;;;;;;;16.55;2.50;;;;;;;;;;5027988;28;20467;-62
2024/01/03 00:26:07;;;;;;;15.80;2.60;;;;;;;;;;5027682;28;20029;-62
2024/01/03 00:28:33;;;;;;;13.73;2.30;;;;;;;;;;5027881;28;20036;-63
2024/01/03 00:31:00;;;;;;;17.00;2.08;;;;;;;;;;5027737;28;20094;-63
2024/01/03 00:33:26;;;;;;;11.52;1.80;;;;;;;;;;5025277;28;20045;-62
2024/01/03 00:35:52;;;;;;;16.05;3.70;;;;;;;;;;5027669;28;20028;-62
2024/01/03 00:38:18;;;;;;;10.75;1.70;;;;;;;;;;5026760;28;20056;-62
2024/01/03 00:40:52;;;;;;;19.15;2.10;;;;;;;;;;5026802;28;20064;-62
2024/01/03 00:43:18;;;;;;;12.10;1.88;;;;;;;;;;5027430;28;20548;-62
2024/01/03 00:45:44;;;;;;;11.95;1.67;;;;;;;;;;5026939;28;20123;-62
2024/01/03 00:48:10;;;;;;;15.82;3.08;;;;;;;;;;5025762;28;20560;-62
2024/01/03 00:50:36;;;;;;;17.10;2.35;;;;;;;;;;5027441;28;20029;-62
2024/01/03 00:53:02;;;;;;;16.10;2.03;;;;;;;;;;5027002;28;20040;-62
2024/01/03 00:55:28;;;;;;;13.52;2.40;;;;;;;;;;5025891;28;20087;-64
2024/01/03 00:57:55;;;;;;;16.63;2.90;;;;;;;;;;5027030;28;20052;-62
2024/01/03 01:00:21;;;;;;;14.55;2.75;;;;;;;;;;5025692;28;20029;-62
2024/01/03 01:02:48;;;;;;;14.80;2.20;;;;;;;;;;5026697;28;20040;-62
2024/01/03 01:05:14;;;;;;;20.77;3.00;;;;;;;;;;5025306;28;20036;-62
2024/01/03 01:07:40;;;;;;;13.35;2.17;;;;;;;;;;5026443;28;20124;-62
2024/01/03 01:10:06;;;;;;;14.30;2.65;;;;;;;;;;5027599;28;20040;-62
2024/01/03 01:12:32;;;;;;;17.13;3.60;;;;;;;;;;5026287;28;20698;-62
2024/01/03 01:15:00;;;;;;;16.23;2.50;;;;;;;;;;5026474;28;20900;-62
2024/01/03 01:17:26;;;;;;;15.32;2.30;;;;;;;;;;5025953;28;20048;-62
2024/01/03 01:19:52;;;;;;;14.38;2.80;;;;;;;;;;5026309;28;20040;-62
2024/01/03 01:22:19;;;;;;;17.80;2.85;;;;;;;;;;5026803;28;20033;-62
2024/01/03 01:24:45;;;;;;;20.15;2.92;;;;;;;;;;5025226;28;20037;-62
2024/01/03 01:27:11;;;;;;;13.70;2.55;;;;;;;;;;5025283;28;20029;-62
2024/01/03 01:29:37;;;;;;;11.48;2.10;;;;;;;;;;5025776;28;20029;-62
2024/01/03 01:32:03;;;;;;;14.05;2.50;;;;;;;;;;5026206;28;20882;-62
2024/01/03 01:34:29;;;;;;;12.43;2.42;;;;;;;;;;5026016;28;20041;-62
2024/01/03 01:36:55;;;;;;;17.20;2.53;;;;;;;;;;5026371;28;20108;-62
2024/01/03 01:39:21;;;;;;;15.73;2.65;;;;;;;;;;5025875;28;20041;-62
2024/01/03 01:41:48;;;;;;;19.20;2.85;;;;;;;;;;5023998;28;20041;-62
2024/01/03 01:44:14;;;;;;;16.70;3.55;;;;;;;;;;5025962;28;20044;-62
2024/01/03 01:46:40;;;;;;;19.10;2.70;;;;;;;;;;5024835;28;20571;-62
2024/01/03 01:49:07;;;;;;;23.67;2.72;;;;;;;;;;5025827;28;20036;-62
2024/01/03 01:51:34;;;;;;;17.58;1.88;;;;;;;;;;5024418;28;20497;-62
2024/01/03 01:54:00;;;;;;;10.13;2.17;;;;;;;;;;5026167;28;20029;-62
2024/01/03 01:56:27;;;;;;;19.50;2.80;;;;;;;;;;5026020;28;20041;-62
2024/01/03 01:58:53;;;;;;;13.48;2.38;;;;;;;;;;5026011;28;20039;-62
2024/01/03 02:01:20;;;;;;;17.77;2.85;;;;;;;;;;5024723;28;20036;-62
2024/01/03 02:03:48;;;;;;;14.82;2.60;;;;;;;;;;5025436;28;21914;-62
2024/01/03 02:06:15;;;;;;;17.65;3.40;;;;;;;;;;5024076;28;20153;-62
2024/01/03 02:08:41;;;;;;;13.55;2.55;;;;;;;;;;5023792;28;20029;-62
2024/01/03 02:11:08;;;;;;;17.17;2.58;;;;;;;;;;5024207;28;20037;-62
2024/01/03 02:13:34;;;;;;;12.02;2.47;;;;;;;;;;5025216;28;20032;-62
2024/01/03 02:16:01;;;;;;;17.27;2.63;;;;;;;;;;5025280;28;20630;-62
2024/01/03 02:18:27;;;;;;;13.38;2.63;;;;;;;;;;5024337;28;20071;-62
2024/01/03 02:20:55;;;;;;;19.63;3.50;;;;;;;;;;5024779;28;20029;-62
2024/01/03 02:23:21;;;;;;;18.00;2.83;;;;;;;;;;5026228;28;20157;-62
2024/01/03 02:25:47;;;;;;;20.60;2.75;;;;;;;;;;5023368;28;20044;-62
2024/01/03 02:28:13;;;;;;;18.92;2.40;;;;;;;;;;5024492;28;20871;-62
2024/01/03 02:30:41;;;;;;;19.83;3.85;;;;;;;;;;5025162;28;20032;-62
2024/01/03 02:33:07;;;;;;;21.00;2.88;;;;;;;;;;5024578;28;20032;-62
2024/01/03 02:35:34;;;;;;;13.90;2.35;;;;;;;;;;5025281;28;20029;-62
2024/01/03 02:38:00;;;;;;;20.70;2.45;;;;;;;;;;5024487;28;20031;-62
2024/01/03 02:40:26;;;;;;;13.77;2.42;;;;;;;;;;5023362;28;20029;-62
2024/01/03 02:42:52;;;;;;;17.38;3.03;;;;;;;;;;5024936;28;20045;-62
2024/01/03 02:45:18;;;;;;;13.55;2.20;;;;;;;;;;5024550;28;20072;-62
2024/01/03 02:47:44;;;;;;;18.67;2.88;;;;;;;;;;5022604;28;20030;-62
2024/01/03 02:50:10;;;;;;;19.83;2.83;;;;;;;;;;5024131;28;20029;-62
2024/01/03 02:52:36;;;;;;;12.48;2.63;;;;;;;;;;5023323;28;20090;-62
2024/01/03 02:55:02;;;;;;;13.13;2.25;;;;;;;;;;5024511;28;20183;-62
2024/01/03 02:57:28;;;;;;;17.85;3.97;;;;;;;;;;5022408;28;20037;-62
2024/01/03 02:59:54;;;;;;;21.13;2.90;;;;;;;;;;5024183;28;20044;-62
2024/01/03 03:02:20;;;;;;;16.33;2.55;;;;;;;;;;5023880;28;20037;-62
2024/01/03 03:04:46;;;;;;;15.75;2.75;;;;;;;;;;5023851;28;20041;-63
2024/01/03 03:07:12;;;;;;;12.90;2.20;;;;;;;;;;5022298;28;20033;-62
2024/01/03 03:09:38;;;;;;;14.38;2.10;;;;;;;;;;5023219;28;20036;-62
2024/01/03 03:12:04;;;;;;;14.65;2.58;;;;;;;;;;5023414;28;20491;-63
2024/01/03 03:14:31;;;;;;;14.60;1.98;;;;;;;;;;5023404;28;20044;-62
2024/01/03 03:16:57;;;;;;;18.25;2.88;;;;;;;;;;5022241;28;20037;-62
2024/01/03 03:19:23;;;;;;;12.93;1.73;;;;;;;;;;5022412;28;20396;-62
2024/01/03 03:21:49;;;;;;;10.93;2.72;;;;;;;;;;5022925;28;20036;-62
2024/01/03 03:24:15;;;;;;;15.75;2.78;;;;;;;;;;5022893;28;20040;-62
2024/01/03 03:26:41;;;;;;;14.68;1.80;;;;;;;;;;5022284;28;20086;-62
2024/01/03 03:29:07;;;;;;;11.70;1.95;;;;;;;;;;5022063;28;20045;-62
2024/01/03 03:31:33;;;;;;;19.45;2.20;;;;;;;;;;5023209;28;20040;-63
2024/01/03 03:33:59;;;;;;;9.75;2.10;;;;;;;;;;5022350;28;20037;-62
2024/01/03 03:36:25;;;;;;;13.25;2.10;;;;;;;;;;5023448;28;20051;-62
2024/01/03 03:38:51;;;;;;;15.77;2.50;;;;;;;;;;5021991;28;21070;-63
2024/01/03 03:41:19;;;;;;;17.40;2.67;;;;;;;;;;5022434;28;21823;-62
2024/01/03 03:43:46;;;;;;;15.25;1.80;;;;;;;;;;5021803;28;20056;-62
2024/01/03 03:46:12;;;;;;;12.40;2.33;;;;;;;;;;5023163;28;20594;-62
2024/01/03 03:48:38;;;;;;;10.60;2.50;;;;;;;;;;5021640;28;20031;-62
2024/01/03 03:51:05;;;;;;;11.20;2.03;;;;;;;;;;5022284;28;20029;-62
2024/01/03 03:53:31;;;;;;;11.45;1.88;;;;;;;;;;5022980;28;20135;-62
2024/01/03 03:55:57;;;;;;;10.23;1.70;;;;;;;;;;5022234;28;20060;-62
2024/01/03 03:58:23;;;;;;;13.13;2.08;;;;;;;;;;5022259;28;20084;-62
2024/01/03 04:00:49;;;;;;;16.15;2.42;;;;;;;;;;5021371;28;20033;-62
2024/01/03 04:03:15;;;;;;;14.18;2.78;;;;;;;;;;5020931;28;20062;-62
2024/01/03 04:05:41;;;;;;;11.23;2.13;;;;;;;;;;5022327;28;20033;-62
2024/01/03 04:08:07;;;;;;;10.30;1.90;;;;;;;;;;5024070;28;20033;-62
2024/01/03 04:10:33;;;;;;;13.38;2.08;;;;;;;;;;5022034;28;20029;-62
2024/01/03 04:12:59;;;;;;;9.02;1.60;;;;;;;;;;5021192;28;20044;-62
2024/01/03 04:15:25;;;;;;;8.35;1.67;;;;;;;;;;5021925;28;20115;-62
2024/01/03 04:17:52;;;;;;;10.73;1.83;;;;;;;;;;5020831;28;20030;-62
2024/01/03 04:20:18;;;;;;;10.73;1.83;;;;;;;;;;5020657;28;20025;-62
2024/01/03 04:22:45;;;;;;;11.95;1.95;;;;;;;;;;5022395;28;20044;-62
2024/01/03 04:25:12;;;;;;;19.33;2.20;;;;;;;;;;5022869;28;20066;-62
2024/01/03 04:27:38;;;;;;;9.77;1.80;;;;;;;;;;5021696;28;20033;-62
2024/01/03 04:30:04;;;;;;;9.32;1.80;;;;;;;;;;5021588;28;20056;-62
2024/01/03 04:32:33;;;;;;;16.90;2.08;;;;;;;;;;5021602;28;20061;-62
2024/01/03 04:34:59;;;;;;;12.45;1.88;;;;;;;;;;5021649;28;20110;-62
2024/01/03 04:37:26;;;;;;;14.98;2.05;;;;;;;;;;5021744;28;20033;-62
2024/01/03 04:39:52;;;;;;;9.98;1.67;;;;;;;;;;5021369;28;20025;-62
2024/01/03 04:42:19;;;;;;;8.30;1.58;;;;;;;;;;5021832;28;20122;-62
2024/01/03 04:44:45;;;;;;;7.82;1.50;;;;;;;;;;5022217;28;20043;-62
2024/01/03 04:47:11;;;;;;;6.78;1.08;;;;;;;;;;5020396;28;20060;-62
2024/01/03 04:49:37;;;;;;;10.60;1.50;;;;;;;;;;5021577;28;20054;-62
2024/01/03 04:52:03;;;;;;;6.57;1.17;;;;;;;;;;5020834;28;20132;-62
2024/01/03 04:54:29;;;;;;;10.43;1.92;;;;;;;;;;5022060;28;20033;-62
2024/01/03 04:56:55;;;;;;;17.02;2.60;;;;;;;;;;5022271;28;20037;-62
2024/01/03 04:59:21;;;;;;;8.20;1.58;;;;;;;;;;5022494;28;21497;-62
2024/01/03 05:01:47;;;;;;;8.90;2.00;;;;;;;;;;5021495;28;20497;-62
2024/01/03 05:04:14;;;;;;;12.98;2.03;;;;;;;;;;5024455;28;20076;-62
2024/01/03 05:06:40;;;;;;;12.00;2.58;;;;;;;;;;5024996;28;20028;-62
2024/01/03 05:09:06;;;;;;;9.57;1.88;;;;;;;;;;5025444;28;20135;-62
2024/01/03 05:11:32;;;;;;;11.82;2.00;;;;;;;;;;5025169;28;20040;-62
2024/01/03 05:13:58;;;;;;;11.82;1.73;;;;;;;;;;5025510;28;20037;-62
2024/01/03 05:16:24;;;;;;;8.50;1.90;;;;;;;;;;5024512;28;20033;-62
2024/01/03 05:18:50;;;;;;;15.57;2.53;;;;;;;;;;5023398;28;20025;-62
2024/01/03 05:21:16;;;;;;;13.38;2.25;;;;;;;;;;5024338;28;20025;-62
2024/01/03 05:23:42;;;;;;;14.77;2.15;;;;;;;;;;5025243;28;20068;-62
2024/01/03 05:26:08;;;;;;;11.75;2.47;;;;;;;;;;5024371;28;20034;-62
2024/01/03 05:28:34;;;;;;;11.45;1.65;;;;;;;;;;5024614;28;20507;-62
2024/01/03 05:31:00;;;;;;;9.23;1.60;;;;;;;;;;5024233;28;20044;-62
2024/01/03 05:33:26;;;;;;;11.35;1.63;;;;;;;;;;5023534;28;20079;-62
2024/01/03 05:35:52;;;;;;;11.50;2.42;;;;;;;;;;5022057;28;20037;-62
2024/01/03 05:38:19;;;;;;;10.25;1.48;;;;;;;;;;5024655;28;21712;-62
2024/01/03 05:40:45;;;;;;;7.32;1.50;;;;;;;;;;5023992;28;20579;-62
2024/01/03 05:43:11;;;;;;;5.95;1.20;;;;;;;;;;5024217;28;20049;-62
2024/01/03 05:45:37;;;;;;;7.43;1.40;;;;;;;;;;5026350;28;21169;-62
2024/01/03 05:48:04;;;;;;;11.57;1.77;;;;;;;;;;5024013;28;20817;-62
2024/01/03 05:50:30;;;;;;;12.75;2.63;;;;;;;;;;5022304;28;20066;-62
2024/01/03 05:52:56;;;;;;;11.65;1.73;;;;;;;;;;5023639;28;20115;-62
2024/01/03 05:55:22;;;;;;;17.42;2.92;;;;;;;;;;5024129;28;20064;-62
2024/01/03 05:57:48;;;;;;;21.20;2.53;;;;;;;;;;5023555;28;20030;-62
2024/01/03 06:00:15;;;;;;;20.02;3.03;;;;;;;;;;5025073;28;20051;-62
2024/01/03 06:02:42;;;;;;;18.63;3.55;;;;;;;;;;5023565;28;20025;-62
2024/01/03 06:05:09;;;;;;;28.63;4.10;;;;;;;;;;5023939;28;20033;-62
2024/01/03 06:07:35;;;;;;;28.60;4.30;;;;;;;;;;5022095;28;20029;-62
2024/01/03 06:10:01;;;;;;;24.88;4.72;;;;;;;;;;5038769;28;20033;-62
2024/01/03 06:12:28;;;;;;;25.80;4.60;;;;;;;;;;5023399;28;20033;-62
2024/01/03 06:14:54;;;;;;;30.88;6.07;;;;;;;;;;5022476;28;20079;-62
2024/01/03 06:17:20;;;;;;;25.70;4.22;;;;;;;;;;5023595;28;20033;-62
2024/01/03 06:19:46;;;;;;;20.13;4.05;;;;;;;;;;5023058;28;20041;-62
2024/01/03 06:22:12;;;;;;;21.52;4.15;;;;;;;;;;5022517;28;20163;-62
2024/01/03 06:24:38;;;;;;;21.90;3.63;;;;;;;;;;5022376;28;20120;-62
2024/01/03 06:27:04;;;;;;;26.95;4.25;;;;;;;;;;5023346;28;20041;-62
2024/01/03 06:29:30;;;;;;;21.42;3.72;;;;;;;;;;5023220;28;20025;-62
2024/01/03 06:31:57;;;;;;;23.65;4.32;;;;;;;;;;5022722;28;20033;-62
2024/01/03 06:34:23;;;;;;;25.77;4.03;;;;;;;;;;5023462;28;20111;-62
2024/01/03 06:36:49;;;;;;;21.70;4.60;;;;;;;;;;5022042;28;20035;-62
2024/01/03 06:39:15;;;;;;;18.88;3.90;;;;;;;;;;5022968;28;20115;-62
2024/01/03 06:41:41;;;;;;;20.08;4.13;;;;;;;;;;5022621;28;20068;-62
2024/01/03 06:44:07;;;;;;;19.45;3.33;;;;;;;;;;5021640;28;20049;-62
2024/01/03 06:46:33;;;;;;;21.77;3.50;;;;;;;;;;5016995;28;20052;-62
2024/01/03 06:48:59;;;;;;;16.77;3.30;;;;;;;;;;5022603;28;20036;-62
2024/01/03 06:51:26;;;;;;;17.85;3.92;;;;;;;;;;5021920;28;20836;-62
2024/01/03 06:53:52;;;;;;;21.52;4.15;;;;;;;;;;5020219;28;20066;-62
2024/01/03 06:56:22;;;;;;;19.48;3.38;;;;;;;;;;5020585;28;21147;-62
2024/01/03 06:58:49;;;;;;;24.48;4.75;;;;;;;;;;5020088;28;20038;-62
2024/01/03 07:01:16;;;;;;;21.23;4.68;;;;;;;;;;5020059;28;20029;-62
2024/01/03 07:03:42;;;;;;;24.88;3.85;;;;;;;;;;5019974;28;20029;-62
2024/01/03 07:06:08;;;;;;;24.85;3.92;;;;;;;;;;5018931;28;20563;-62
2024/01/03 07:08:34;;;;;;;28.38;4.63;;;;;;;;;;5021950;28;20804;-62
2024/01/03 07:11:00;;;;;;;30.13;3.88;;;;;;;;;;5021504;28;20508;-62
2024/01/03 07:13:26;;;;;;;24.42;4.57;;;;;;;;;;5022327;28;20455;-62
2024/01/03 07:15:52;;;;;;;24.00;4.22;;;;;;;;;;5021819;28;20041;-62
2024/01/03 07:18:18;;;;;;;21.85;3.53;;;;;;;;;;5023273;28;20766;-62
2024/01/03 07:20:44;;;;;;;24.88;4.35;;;;;;;;;;5022455;28;20182;-62
2024/01/03 07:23:11;;;;;;;21.45;3.83;;;;;;;;;;5022117;28;20041;-62
2024/01/03 07:25:37;;;;;;;25.90;3.78;;;;;;;;;;5021192;28;20028;-62
2024/01/03 07:28:03;;;;;;;20.73;3.53;;;;;;;;;;5021259;28;20063;-62
2024/01/03 07:30:29;;;;;;;18.52;3.25;;;;;;;;;;5021222;28;20705;-62
2024/01/03 07:32:57;;;;;;;28.20;3.33;;;;;;;;;;5022091;28;20396;-62
2024/01/03 07:35:24;;;;;;;17.60;3.50;;;;;;;;;;5022035;28;20144;-62
2024/01/03 07:37:50;;;;;;;19.30;3.05;;;;;;;;;;5022580;28;20507;-62
2024/01/03 07:40:16;;;;;;;20.10;2.97;;;;;;;;;;5039736;28;20044;-62
2024/01/03 07:42:42;;;;;;;22.40;3.75;;;;;;;;;;5020936;28;20053;-62
2024/01/03 07:45:09;;;;;;;18.65;3.45;;;;;;;;;;5022104;28;20160;-62
2024/01/03 07:47:35;;;;;;;21.80;4.25;;;;;;;;;;5021361;28;21551;-62
2024/01/03 07:50:02;;;;;;;22.98;4.20;;;;;;;;;;5021608;28;21053;-62
2024/01/03 07:52:28;;;;;;;15.10;2.70;;;;;;;;;;5021786;28;21172;-62
2024/01/03 07:54:54;;;;;;;17.20;2.30;;;;;;;;;;5022846;28;20037;-62
2024/01/03 07:57:20;;;;;;;22.02;4.07;;;;;;;;;;5020199;28;20060;-62
2024/01/03 07:59:47;;;;;;;15.57;2.83;;;;;;;;;;5021135;28;21750;-62
2024/01/03 08:02:14;;;;;;;21.77;3.80;;;;;;;;;;5021079;28;20033;-62
2024/01/03 08:04:40;;;;;;;21.10;3.33;;;;;;;;;;5022088;28;20040;-62
2024/01/03 08:07:06;;;;;;;17.25;3.63;;;;;;;;;;5022381;28;20033;-62
2024/01/03 08:09:34;;;;;;;19.90;3.85;;;;;;;;;;5021665;28;20029;-62
2024/01/03 08:12:00;;;;;;;25.80;3.97;;;;;;;;;;5022534;28;20664;-62
2024/01/03 08:14:26;;;;;;;18.85;3.15;;;;;;;;;;5021044;28;20033;-62
2024/01/03 08:16:52;;;;;;;19.33;2.95;;;;;;;;;;5019658;28;20939;-62
2024/01/03 08:19:18;;;;;;;23.45;3.08;;;;;;;;;;5022488;28;20040;-62
2024/01/03 08:21:44;;;;;;;16.38;2.60;;;;;;;;;;5021546;28;21901;-62
2024/01/03 08:24:10;;;;;;;21.27;3.60;;;;;;;;;;5021528;28;20038;-62
2024/01/03 08:26:36;;;;;;;17.88;3.22;;;;;;;;;;5021653;28;20051;-62
2024/01/03 08:29:02;;;;;;;15.20;2.72;;;;;;;;;;5021527;28;20136;-62
2024/01/03 08:31:28;;;;;;;17.27;2.83;;;;;;;;;;5022572;28;20072;-62
2024/01/03 08:33:54;;;;;;;16.63;2.67;;;;;;;;;;5023483;28;20099;-62
2024/01/03 08:36:21;;;;;;;21.15;3.15;;;;;;;;;;5023614;28;20045;-62
2024/01/03 08:38:48;;;;;;;20.52;2.50;;;;;;;;;;5023668;28;20052;-62
2024/01/03 08:41:15;;;;;;;19.45;2.88;;;;;;;;;;5024952;28;20075;-62
2024/01/03 08:43:41;;;;;;;15.25;2.97;;;;;;;;;;5024720;28;20719;-62
2024/01/03 08:46:07;;;;;;;18.63;2.85;;;;;;;;;;5025174;28;20029;-62
2024/01/03 08:48:33;;;;;;;17.88;3.35;;;;;;;;;;5024006;28;20145;-62
2024/01/03 08:50:59;;;;;;;20.92;2.35;;;;;;;;;;5024722;28;20145;-62
2024/01/03 08:53:25;;;;;;;19.05;3.47;;;;;;;;;;5026087;28;20415;-62
2024/01/03 08:55:51;;;;;;;18.27;3.15;;;;;;;;;;5024730;28;20036;-62
2024/01/03 08:58:18;;;;;;;28.83;4.80;;;;;;;;;;5022289;28;20037;-62
2024/01/03 09:00:44;;;;;;;13.40;2.90;;;;;;;;;;5024977;28;20037;-62
2024/01/03 09:03:11;;;;;;;15.32;2.67;;;;;;;;;;5025607;28;20065;-62
2024/01/03 09:05:37;;;;;;;16.45;2.92;;;;;;;;;;5024074;28;20056;-62
2024/01/03 09:08:03;;;;;;;15.38;3.20;;;;;;;;;;5025088;28;20095;-62
2024/01/03 09:10:29;;;;;;;21.92;4.25;;;;;;;;;;5024368;28;20033;-62
2024/01/03 09:12:55;;;;;;;15.70;3.03;;;;;;;;;;5024048;28;20045;-62
2024/01/03 09:15:22;;;;;;;22.02;3.80;;;;;;;;;;5024771;28;20386;-62
2024/01/03 09:17:48;;;;;;;18.85;3.13;;;;;;;;;;5023697;28;20040;-62
2024/01/03 09:20:16;;;;;;;14.73;2.92;;;;;;;;;;5025233;28;20029;-62
2024/01/03 09:22:42;;;;;;;19.45;2.50;;;;;;;;;;5023654;28;20294;-62
2024/01/03 09:25:08;;;;;;;15.43;2.70;;;;;;;;;;5024234;28;20034;-62
2024/01/03 09:27:34;;;;;;;13.63;2.33;;;;;;;;;;5023978;28;20029;-62
2024/01/03 09:30:00;;;;;;;12.10;2.40;;;;;;;;;;5023656;28;20116;-62
2024/01/03 09:32:26;;;;;;;19.45;2.28;;;;;;;;;;5023454;28;20438;-62
2024/01/03 09:34:53;;;;;;;17.33;3.17;;;;;;;;;;5024029;28;20398;-62
2024/01/03 09:37:19;;;;;;;18.65;2.72;;;;;;;;;;5022768;28;20025;-58
2024/01/03 09:39:45;;;;;;;26.67;3.72;;;;;;;;;;5023579;28;20091;-62
2024/01/03 09:42:11;;;;;;;15.75;3.40;;;;;;;;;;5023625;28;20053;-63
2024/01/03 09:44:37;;;;;;;19.02;3.05;;;;;;;;;;5024593;28;20128;-63
2024/01/03 09:47:04;;;;;;;17.10;2.75;;;;;;;;;;5023084;28;20580;-63
2024/01/03 09:49:30;;;;;;;16.20;3.30;;;;;;;;;;5024404;28;20017;-63
2024/01/03 09:51:56;;;;;;;20.95;2.88;;;;;;;;;;5022767;28;21281;-63
2024/01/03 09:54:22;;;;;;;10.57;1.88;;;;;;;;;;5022087;28;20119;-63
2024/01/03 09:56:51;;;;;;;15.93;2.28;;;;;;;;;;5020406;28;20084;-63
2024/01/03 09:59:17;;;;;;;10.82;2.22;;;;;;;;;;5019816;28;20040;-63
2024/01/03 10:01:59;;;;;;;9.38;1.40;;;;;;;;;;5021824;28;20545;-63
2024/01/03 10:04:25;;;;;;;8.40;1.88;;;;;;;;;;5017613;28;20037;-63
2024/01/03 10:06:53;;;;;;;9.38;1.30;;;;;;;;;;5018976;28;20040;-63
2024/01/03 10:09:19;;;;;;;13.77;1.95;;;;;;;;;;5017903;28;20040;-64
2024/01/03 10:11:46;;;;;;;14.57;2.38;;;;;;;;;;5022693;28;20560;-63
2024/01/03 10:14:22;;;;;;;16.90;2.35;;;;;;;;;;5022102;28;20056;-63
2024/01/03 10:16:49;;;;;;;12.07;2.28;;;;;;;;;;5022584;28;20603;-63
2024/01/03 10:19:16;;;;;;;13.23;2.13;;;;;;;;;;5022844;28;20041;-63
2024/01/03 10:21:52;;;;;;;14.02;2.58;;;;;;;;;;5023595;28;20056;-63
2024/01/03 10:24:19;;;;;;;15.68;2.60;;;;;;;;;;5019912;28;20408;-63
2024/01/03 10:26:45;;;;;;;16.88;2.70;;;;;;;;;;5021989;28;20032;-63
2024/01/03 10:29:21;;;;;;;15.00;2.67;;;;;;;;;;5024035;28;20533;-63
2024/01/03 10:31:47;;;;;;;11.38;1.73;;;;;;;;;;5022616;28;20484;-63
2024/01/03 10:34:17;;;;;;;15.27;2.63;;;;;;;;;;5023247;28;20102;-63
2024/01/03 10:36:45;;;;;;;15.73;2.47;;;;;;;;;;5022507;28;20044;-63
2024/01/03 10:39:14;;;;;;;11.02;1.98;;;;;;;;;;5023445;28;20137;-63
2024/01/03 10:41:43;;;;;;;19.35;2.63;;;;;;;;;;5021386;28;20757;-63
2024/01/03 10:44:10;;;;;;;16.58;2.10;;;;;;;;;;5017132;28;20075;-63
2024/01/03 10:46:36;;;;;;;16.92;2.47;;;;;;;;;;5012870;28;20036;-63
2024/01/03 10:49:03;;;;;;;10.95;2.15;;;;;;;;;;5013374;28;20025;-63
2024/01/03 10:51:34;;;;;;;16.08;2.50;;;;;;;;;;5014587;28;20044;-63
2024/01/03 10:54:00;;;;;;;10.30;2.15;;;;;;;;;;5013667;28;20021;-63
2024/01/03 10:56:28;;;;;;;11.00;2.20;;;;;;;;;;5013352;28;20051;-63
2024/01/03 10:58:55;;;;;;;14.95;2.47;;;;;;;;;;5014310;28;20025;-63
2024/01/03 11:01:34;;;;;;;12.35;2.10;;;;;;;;;;5014580;28;20044;-63
2024/01/03 11:04:01;;;;;;;13.00;2.75;;;;;;;;;;5011108;28;20793;-63
2024/01/03 11:06:36;;;;;;;14.85;2.45;;;;;;;;;;5013627;28;20025;-63
2024/01/03 11:09:02;;;;;;;13.55;1.67;;;;;;;;;;5013646;28;20131;-63
2024/01/03 11:11:29;;;;;;;19.60;2.95;;;;;;;;;;5013019;28;20038;-63
2024/01/03 11:13:56;;;;;;;15.13;2.83;;;;;;;;;;5013514;28;20037;-63
2024/01/03 11:16:37;;;;;;;11.27;1.83;;;;;;;;;;5013659;28;20158;-63
2024/01/03 11:19:04;;;;;;;18.65;2.63;;;;;;;;;;5012766;28;20056;-63
2024/01/03 11:21:35;;;;;;;12.88;2.28;;;;;;;;;;5013136;28;20043;-63
2024/01/03 11:24:01;;;;;;;16.13;3.05;;;;;;;;;;5013855;28;20079;-63
2024/01/03 11:26:46;;;;;;;17.63;2.95;;;;;;;;;;5015328;28;20025;-63
2024/01/03 11:29:32;;;;;;;22.27;3.22;;;;;;;;;;5013442;28;20078;-63
2024/01/03 11:31:58;;;;;;;19.52;3.45;;;;;;;;;;5015127;28;20079;-63
2024/01/03 11:34:44;;;;;;;17.33;3.45;;;;;;;;;;5014177;28;20029;-63
2024/01/03 11:37:10;;;;;;;15.90;2.85;;;;;;;;;;5013675;28;20075;-63
2024/01/03 11:39:36;;;;;;;16.08;3.08;;;;;;;;;;5015060;28;20072;-63
2024/01/03 11:42:03;;;;;;;18.50;3.10;;;;;;;;;;5011863;28;20030;-63
2024/01/03 11:44:29;;;;;;;11.75;2.65;;;;;;;;;;5013045;28;20122;-63
2024/01/03 11:47:03;;;;;;;19.55;3.95;;;;;;;;;;5013447;28;21064;-63
2024/01/03 11:49:29;;;;;;;21.33;2.80;;;;;;;;;;5013947;28;20025;-63
2024/01/03 11:51:58;;;;;;;17.38;2.88;;;;;;;;;;5013842;28;20100;-63
2024/01/03 11:54:25;;;;;;;17.60;3.05;;;;;;;;;;5013936;28;20071;-63
2024/01/03 11:56:53;;;;;;;16.17;2.83;;;;;;;;;;5012492;28;20112;-63
2024/01/03 11:59:22;;;;;;;20.42;3.08;;;;;;;;;;5012887;28;20036;-63
2024/01/03 12:01:58;;;;;;;15.48;2.58;;;;;;;;;;5013295;28;20152;-63
2024/01/03 12:04:25;;;;;;;17.50;3.08;;;;;;;;;;5013197;28;20059;-63
2024/01/03 12:06:55;;;;;;;18.10;3.08;;;;;;;;;;5011622;28;20650;-63
2024/01/03 12:09:22;;;;;;;18.13;2.80;;;;;;;;;;5014270;28;20021;-63
2024/01/03 12:11:48;;;;;;;13.73;2.67;;;;;;;;;;5017120;28;20033;-63
2024/01/03 12:14:17;;;;;;;15.75;2.92;;;;;;;;;;5016743;28;20147;-63
2024/01/03 12:16:47;;;;;;;12.93;3.72;;;;;;;;;;5018014;28;20034;-63
2024/01/03 12:19:23;;;;;;;17.92;3.33;;;;;;;;;;5019074;28;20041;-63
2024/01/03 12:21:53;;;;;;;19.48;3.08;;;;;;;;;;5019013;28;20033;-63
2024/01/03 12:24:19;;;;;;;15.35;2.47;;;;;;;;;;5018448;28;20870;-63
2024/01/03 12:26:48;;;;;;;12.50;2.83;;;;;;;;;;5019129;28;20117;-63
2024/01/03 12:29:14;;;;;;;17.88;2.67;;;;;;;;;;5019062;28;20457;-63
2024/01/03 12:31:40;;;;;;;17.40;2.70;;;;;;;;;;5017648;28;20597;-63
2024/01/03 12:34:08;;;;;;;12.38;2.85;;;;;;;;;;5018652;28;20037;-63
2024/01/03 12:36:34;;;;;;;14.60;3.20;;;;;;;;;;5018068;28;20041;-62
2024/01/03 12:39:00;;;;;;;14.98;2.67;;;;;;;;;;5018358;28;20075;-63
2024/01/03 12:41:26;;;;;;;18.20;3.13;;;;;;;;;;5018783;28;20042;-63
2024/01/03 12:43:52;;;;;;;22.33;2.95;;;;;;;;;;5018144;28;21564;-63
2024/01/03 12:46:18;;;;;;;12.65;3.03;;;;;;;;;;5017889;28;21748;-63
2024/01/03 12:48:45;;;;;;;16.73;2.42;;;;;;;;;;5019547;28;20167;-63
2024/01/03 12:51:11;;;;;;;16.90;2.97;;;;;;;;;;5019111;28;20500;-63
2024/01/03 12:53:37;;;;;;;17.92;3.42;;;;;;;;;;5018512;28;20025;-63
2024/01/03 12:56:03;;;;;;;16.63;2.92;;;;;;;;;;5016155;28;20043;-63
2024/01/03 12:58:29;;;;;;;23.35;3.95;;;;;;;;;;5018353;28;20037;-63
2024/01/03 13:00:57;;;;;;;20.17;3.83;;;;;;;;;;5017464;28;20040;-63
2024/01/03 13:03:24;;;;;;;15.68;2.70;;;;;;;;;;5015100;28;20025;-62
2024/01/03 13:05:51;;;;;;;13.30;2.47;;;;;;;;;;5017242;28;20104;-63
2024/01/03 13:08:17;;;;;;;11.93;2.67;;;;;;;;;;5017145;28;20194;-63
2024/01/03 13:10:44;;;;;;;11.45;2.10;;;;;;;;;;5016366;28;20029;-63
2024/01/03 13:13:10;;;;;;;12.95;2.40;;;;;;;;;;5016988;28;20029;-63
2024/01/03 13:15:36;;;;;;;12.13;2.42;;;;;;;;;;5015512;28;20041;-63
2024/01/03 13:18:02;;;;;;;19.35;3.05;;;;;;;;;;5015755;28;20029;-63
2024/01/03 13:20:29;;;;;;;15.25;3.42;;;;;;;;;;5016206;28;20033;-62
2024/01/03 13:22:55;;;;;;;13.88;2.50;;;;;;;;;;5016027;28;20028;-63
2024/01/03 13:25:21;;;;;;;15.57;2.70;;;;;;;;;;5032154;28;20725;-62
2024/01/03 13:27:47;;;;;;;16.85;2.60;;;;;;;;;;5017833;28;20029;-63
2024/01/03 13:30:13;;;;;;;16.33;2.58;;;;;;;;;;5017455;28;20044;-63
2024/01/03 13:32:41;;;;;;;15.65;2.80;;;;;;;;;;5014590;28;20028;-63
2024/01/03 13:35:07;;;;;;;15.65;2.53;;;;;;;;;;5007458;28;20076;-63
2024/01/03 13:37:33;;;;;;;11.70;2.72;;;;;;;;;;5011480;28;20920;-63
2024/01/03 13:40:01;;;;;;;23.27;3.10;;;;;;;;;;5013265;28;20032;-63
2024/01/03 13:42:27;;;;;;;17.50;4.05;;;;;;;;;;5011684;28;20474;-63
2024/01/03 13:44:53;;;;;;;20.55;3.30;;;;;;;;;;5014108;28;20044;-63
2024/01/03 13:47:20;;;;;;;15.02;2.45;;;;;;;;;;5013148;28;20041;-63
2024/01/03 13:49:47;;;;;;;11.77;2.67;;;;;;;;;;5013546;28;20032;-63
2024/01/03 13:52:14;;;;;;;17.65;2.50;;;;;;;;;;5013111;28;20048;-63
2024/01/03 13:54:40;;;;;;;16.45;2.53;;;;;;;;;;5013579;28;21407;-63
2024/01/03 13:57:06;;;;;;;22.38;2.70;;;;;;;;;;5013794;28;20064;-63
2024/01/03 13:59:32;;;;;;;19.15;3.17;;;;;;;;;;5014231;28;20093;-62
2024/01/03 14:01:58;;;;;;;14.48;2.92;;;;;;;;;;5013545;28;20032;-63
2024/01/03 14:04:24;;;;;;;16.52;3.15;;;;;;;;;;5012830;28;20106;-63
2024/01/03 14:06:51;;;;;;;18.95;3.20;;;;;;;;;;5012565;28;20048;-62
2024/01/03 14:09:18;;;;;;;14.13;2.78;;;;;;;;;;5010160;28;20024;-62
2024/01/03 14:11:44;;;;;;;11.23;2.40;;;;;;;;;;5013129;28;20242;-63
2024/01/03 14:14:10;;;;;;;18.23;2.83;;;;;;;;;;5010455;28;20132;-63
2024/01/03 14:16:37;;;;;;;18.90;2.55;;;;;;;;;;5012534;28;20029;-62
2024/01/03 14:19:03;;;;;;;16.23;2.53;;;;;;;;;;5013166;28;20029;-64
2024/01/03 14:21:30;;;;;;;17.70;2.40;;;;;;;;;;5011681;28;20045;-63
2024/01/03 14:23:56;;;;;;;18.20;3.28;;;;;;;;;;5012701;28;20482;-63
2024/01/03 14:26:22;;;;;;;24.05;2.50;;;;;;;;;;5012798;28;20083;-63
2024/01/03 14:28:48;;;;;;;13.57;2.50;;;;;;;;;;5015385;28;20091;-63